Time;durP1;ratioP1;P1;durP2;ratioP2;P2;SDS_P1;SDS_P2;PMS_P1;PMS_P2;Temp;Humidity;BMP_temperature;BMP_pressure;BME280_temperature;BME280_humidity;BME280_pressure;Samples;Min_cycle;Max_cycle;Signal;HPM_P1;HPM_P2
2024/02/18 00:00:22;;;;;;;6.50;3.80;;;;;;;4.71;100.00;100544.65;273629;1266;22393;-88
2024/02/18 00:06:44;;;;;;;9.20;5.30;;;;;;;4.64;100.00;100552.58;273490;1267;23182;-88
2024/02/18 00:12:46;;;;;;;7.90;5.00;;;;;;;4.57;100.00;100560.66;273525;1266;22237;-88
2024/02/18 00:18:48;;;;;;;8.50;4.90;;;;;;;4.51;100.00;100568.23;273272;1266;23990;-88
2024/02/18 00:24:53;;;;;;;13.90;6.10;;;;;;;4.51;100.00;100577.01;273655;1267;22444;-90
2024/02/18 00:30:55;;;;;;;10.30;5.60;;;;;;;4.56;100.00;100591.19;273352;1266;22326;-89
2024/02/18 00:36:57;;;;;;;16.40;6.60;;;;;;;4.59;100.00;100588.02;273509;1267;22647;-89
2024/02/18 00:42:59;;;;;;;12.70;6.90;;;;;;;4.62;100.00;100585.70;273463;1266;22182;-89
2024/02/18 00:49:01;;;;;;;18.70;7.70;;;;;;;4.67;100.00;100592.37;273536;1266;22204;-88
2024/02/18 00:55:04;;;;;;;11.90;7.50;;;;;;;4.69;100.00;100594.66;273099;1268;22223;-88
2024/02/18 01:01:06;;;;;;;12.70;7.40;;;;;;;4.70;100.00;100595.73;273239;1268;22419;-88
2024/02/18 01:07:12;;;;;;;11.40;6.90;;;;;;;4.71;100.00;100606.23;273344;1268;22424;-88
2024/02/18 01:13:14;;;;;;;10.20;6.80;;;;;;;4.73;100.00;100617.09;273237;1268;22280;-88
2024/02/18 01:19:16;;;;;;;15.80;8.30;;;;;;;4.74;100.00;100616.21;273211;1269;22232;-89
2024/02/18 01:25:18;;;;;;;15.80;8.10;;;;;;;4.74;100.00;100618.92;273756;1268;23093;-88
2024/02/18 01:31:19;;;;;;;13.70;7.70;;;;;;;4.73;100.00;100622.68;273278;1268;22424;-89
2024/02/18 01:37:22;;;;;;;9.30;6.00;;;;;;;4.72;100.00;100623.68;273315;1260;22385;-89
2024/02/18 01:43:24;;;;;;;9.30;6.30;;;;;;;4.70;100.00;100625.11;273248;1268;22407;-90
2024/02/18 01:49:27;;;;;;;9.20;5.50;;;;;;;4.68;100.00;100629.60;273311;1268;23423;-88
2024/02/18 01:55:29;;;;;;;9.90;5.20;;;;;;;4.65;100.00;100630.15;273239;1268;22345;-89
2024/02/18 02:01:33;;;;;;;10.00;5.00;;;;;;;4.61;100.00;100632.97;271762;1269;22318;-89
2024/02/18 02:07:36;;;;;;;9.80;4.50;;;;;;;4.58;100.00;100638.12;273536;1269;22234;-89
2024/02/18 02:13:37;;;;;;;9.60;5.00;;;;;;;4.54;100.00;100638.13;273508;1269;22306;-89
2024/02/18 02:19:40;;;;;;;10.90;5.30;;;;;;;4.53;100.00;100637.73;273323;1269;22201;-90
2024/02/18 02:25:42;;;;;;;8.10;4.40;;;;;;;4.52;100.00;100634.33;272659;1267;22347;-89
2024/02/18 02:31:49;;;;;;;7.50;5.00;;;;;;;4.48;100.00;100635.47;273657;1259;81095;-91
2024/02/18 02:37:52;;;;;;;;;;;;;;;4.43;100.00;100641.23;272763;1270;22533;-89
2024/02/18 02:43:54;;;;;;;9.40;4.60;;;;;;;4.38;100.00;100643.92;272847;1270;22454;-90
2024/02/18 02:49:56;;;;;;;9.90;5.30;;;;;;;4.35;100.00;100640.33;272895;1270;22306;-88
2024/02/18 02:55:59;;;;;;;10.10;5.20;;;;;;;4.33;100.00;100638.45;272982;1270;23360;-88
2024/02/18 03:02:01;;;;;;;10.60;5.50;;;;;;;4.31;100.00;100645.17;270622;1270;22507;-88
2024/02/18 03:08:03;;;;;;;12.00;5.90;;;;;;;4.27;100.00;100645.66;271458;1269;22413;-89
2024/02/18 03:14:05;;;;;;;10.80;5.10;;;;;;;4.24;100.00;100646.02;273055;1270;22258;-89
2024/02/18 03:20:11;;;;;;;13.60;5.80;;;;;;;4.22;100.00;100652.98;273047;1267;22216;-89
2024/02/18 03:26:13;;;;;;;10.20;5.00;;;;;;;4.21;100.00;100662.17;272774;1270;22542;-90
2024/02/18 03:32:15;;;;;;;10.50;6.00;;;;;;;4.19;100.00;100664.69;272982;1270;23715;-89
2024/02/18 03:38:17;;;;;;;11.20;5.70;;;;;;;4.18;100.00;100667.54;272626;1270;22573;-89
2024/02/18 03:44:19;;;;;;;11.50;5.40;;;;;;;4.16;100.00;100667.60;271143;1270;22626;-89
2024/02/18 03:50:20;;;;;;;9.80;4.40;;;;;;;4.16;100.00;100668.96;269513;1270;22547;-89
2024/02/18 03:56:22;;;;;;;7.60;4.00;;;;;;;4.13;100.00;100662.99;269690;1270;22664;-89
2024/02/18 04:02:24;;;;;;;8.10;4.70;;;;;;;4.12;100.00;100662.39;270821;1270;22726;-89
2024/02/18 04:08:26;;;;;;;9.50;4.80;;;;;;;4.13;100.00;100660.02;270712;1270;24279;-89
2024/02/18 04:14:28;;;;;;;7.00;4.50;;;;;;;4.12;100.00;100668.59;272586;1270;22378;-90
2024/02/18 04:20:30;;;;;;;9.30;4.70;;;;;;;4.12;100.00;100662.79;272818;1270;22395;-90
2024/02/18 04:26:32;;;;;;;8.50;4.40;;;;;;;4.12;100.00;100664.52;272998;1270;22469;-89
2024/02/18 04:32:34;;;;;;;10.20;4.80;;;;;;;4.13;100.00;100667.06;272075;1270;22534;-90
2024/02/18 04:38:36;;;;;;;9.30;4.20;;;;;;;4.14;100.00;100668.89;269989;1270;22570;-90
2024/02/18 04:44:39;;;;;;;7.70;4.90;;;;;;;4.13;100.00;100676.59;271689;1270;22434;-91
2024/02/18 04:50:46;;;;;;;8.00;4.50;;;;;;;4.16;100.00;100675.42;272568;1260;22520;-90
2024/02/18 04:56:58;;;;;;;;;;;;;;;4.18;100.00;100680.86;271974;1270;22500;-90
2024/02/18 05:03:12;;;;;;;8.70;5.50;;;;;;;4.13;100.00;100683.04;272319;1269;23364;-90
2024/02/18 05:09:24;;;;;;;10.00;5.50;;;;;;;4.11;100.00;100680.10;272987;1270;22195;-89
2024/02/18 05:15:27;;;;;;;13.90;6.60;;;;;;;4.10;100.00;100676.63;270291;1270;26505;-89
2024/02/18 05:21:29;;;;;;;10.50;5.10;;;;;;;4.09;100.00;100678.70;272196;1270;22210;-91
2024/02/18 05:27:32;;;;;;;12.00;5.90;;;;;;;4.07;100.00;100686.75;272338;1270;22322;-89
2024/02/18 05:33:42;;;;;;;9.30;5.70;;;;;;;4.07;100.00;100690.55;272758;1270;22155;-90
2024/02/18 05:39:44;;;;;;;12.60;6.60;;;;;;;4.05;100.00;100690.85;270843;1270;23371;-89
2024/02/18 05:45:49;;;;;;;12.60;6.50;;;;;;;3.98;100.00;100688.45;272958;1270;23585;-91
2024/02/18 05:51:54;;;;;;;12.10;7.30;;;;;;;3.96;100.00;100686.48;272869;1270;22538;-90
2024/02/18 05:57:56;;;;;;;14.30;7.50;;;;;;;3.96;100.00;100685.65;272741;1270;23280;-89
2024/02/18 06:03:58;;;;;;;14.00;6.40;;;;;;;3.96;100.00;100686.30;272814;1270;22414;-90
2024/02/18 06:10:01;;;;;;;12.90;6.70;;;;;;;3.97;100.00;100689.48;272247;1270;22563;-90
2024/02/18 06:16:04;;;;;;;11.80;6.50;;;;;;;3.97;100.00;100698.16;272757;1270;22713;-90
2024/02/18 06:22:10;;;;;;;16.00;6.40;;;;;;;3.97;100.00;100702.39;272845;1270;22120;-91
2024/02/18 06:28:12;;;;;;;13.60;7.10;;;;;;;4.00;100.00;100709.19;272743;1269;22517;-90
2024/02/18 06:34:16;;;;;;;15.50;8.90;;;;;;;4.01;100.00;100710.30;271290;1270;22259;-90
2024/02/18 06:40:23;;;;;;;15.80;8.60;;;;;;;4.04;100.00;100710.98;272834;1270;22870;-90
2024/02/18 06:46:26;;;;;;;21.10;11.10;;;;;;;4.07;100.00;100709.64;270925;1269;23736;-90
2024/02/18 06:52:29;;;;;;;18.30;11.30;;;;;;;4.11;100.00;100711.48;270059;1270;22724;-90
2024/02/18 06:58:32;;;;;;;22.50;11.90;;;;;;;4.17;100.00;100718.02;272111;1269;22489;-90
2024/02/18 07:04:34;;;;;;;20.70;11.50;;;;;;;4.21;100.00;100723.98;271935;1270;320986;-90
2024/02/18 07:10:38;;;;;;;21.90;12.50;;;;;;;4.26;100.00;100730.15;272286;1270;22206;-90
2024/02/18 07:16:41;;;;;;;22.00;12.00;;;;;;;4.32;100.00;100732.77;271767;1270;22507;-90
2024/02/18 07:22:44;;;;;;;31.10;14.50;;;;;;;4.37;100.00;100732.92;271651;1270;23509;-90
2024/02/18 07:28:46;;;;;;;22.80;12.30;;;;;;;4.45;100.00;100737.79;272101;1270;23746;-90
2024/02/18 07:34:48;;;;;;;24.40;12.90;;;;;;;4.55;100.00;100749.05;272288;1270;23326;-90
2024/02/18 07:40:50;;;;;;;22.20;11.30;;;;;;;4.63;100.00;100752.66;272388;1270;23604;-90
2024/02/18 07:46:54;;;;;;;30.20;12.20;;;;;;;4.73;100.00;100752.57;271262;1270;23418;-90
2024/02/18 07:52:56;;;;;;;11.40;5.80;;;;;;;4.78;100.00;100752.02;270018;1269;22543;-89
2024/02/18 07:58:57;;;;;;;14.90;6.60;;;;;;;4.79;100.00;100757.76;270682;1269;22407;-90
2024/02/18 08:04:59;;;;;;;15.60;6.60;;;;;;;4.85;100.00;100759.89;272793;1270;22279;-90
2024/02/18 08:11:02;;;;;;;9.10;4.70;;;;;;;4.88;100.00;100758.91;272622;1270;22254;-88
2024/02/18 08:17:04;;;;;;;8.90;4.10;;;;;;;4.94;100.00;100759.86;272723;1270;23619;-89
2024/02/18 08:23:06;;;;;;;9.50;4.30;;;;;;;5.02;100.00;100765.53;272767;1269;22395;-90
2024/02/18 08:29:08;;;;;;;8.70;4.50;;;;;;;5.13;100.00;100769.66;272429;1270;22293;-89
2024/02/18 08:35:10;;;;;;;8.00;4.40;;;;;;;5.28;100.00;100767.01;272277;1269;23998;-90
2024/02/18 08:41:12;;;;;;;14.10;6.20;;;;;;;5.39;100.00;100772.48;272904;1269;22218;-90
2024/02/18 08:47:14;;;;;;;10.20;5.00;;;;;;;5.48;100.00;100777.16;273037;1269;22423;-91
2024/02/18 08:53:17;;;;;;;10.90;5.10;;;;;;;5.60;99.82;100777.73;272957;1270;22331;-92
2024/02/18 08:59:19;;;;;;;7.30;4.10;;;;;;;5.73;99.83;100774.79;272725;1268;23098;-90
2024/02/18 09:05:26;;;;;;;8.90;4.70;;;;;;;5.91;98.93;100781.05;272238;1270;23289;-89
2024/02/18 09:11:27;;;;;;;8.90;4.70;;;;;;;6.04;98.34;100786.55;272492;1270;22414;-88
2024/02/18 09:17:30;;;;;;;8.90;5.70;;;;;;;6.08;98.54;100784.52;272432;1270;23077;-90
2024/02/18 09:23:32;;;;;;;9.30;6.20;;;;;;;6.16;98.38;100786.44;273047;1270;22403;-88
2024/02/18 09:29:36;;;;;;;11.00;6.10;;;;;;;6.28;98.56;100784.04;273065;1270;22372;-89
2024/02/18 09:35:38;;;;;;;12.10;6.50;;;;;;;6.44;96.61;100777.25;272526;1270;23614;-91
2024/02/18 09:41:45;;;;;;;12.90;6.70;;;;;;;6.66;97.08;100772.78;272867;1270;23288;-90
2024/02/18 09:47:48;;;;;;;12.70;6.80;;;;;;;6.95;96.50;100768.75;273084;1272;22213;-90
2024/02/18 09:54:35;;;;;;;11.80;6.70;;;;;;;6.91;93.97;100762.63;272675;1270;22403;-91
2024/02/18 10:00:43;;;;;;;;;;;;;;;6.64;95.04;100756.25;273262;1270;22991;-91
2024/02/18 10:14:58;;;;;;;17.10;8.00;;;;;;;6.42;93.27;100749.07;272522;1270;22287;-91
2024/02/18 10:21:54;;;;;;;10.60;6.70;;;;;;;6.32;91.69;100746.73;272542;1270;22352;-90
2024/02/18 10:28:14;;;;;;;8.90;6.30;;;;;;;6.32;91.03;100742.05;272636;1269;22621;-92
2024/02/18 10:34:34;;;;;;;10.10;6.90;;;;;;;6.38;91.85;100725.36;272041;1269;22655;-90
2024/02/18 10:41:42;;;;;;;20.90;10.30;;;;;;;6.53;92.23;100713.44;272866;1269;23180;-90
2024/02/18 10:48:00;;;;;;;9.40;7.00;;;;;;;6.49;91.09;100707.13;272230;1270;22516;-90
2024/02/18 10:55:02;;;;;;;10.20;6.00;;;;;;;6.49;90.36;100692.66;271559;1269;23714;-90
2024/02/18 11:01:17;;;;;;;19.10;9.00;;;;;;;6.65;90.17;100686.56;272234;1261;22259;-90
2024/02/18 11:07:21;;;;;;;11.10;6.50;;;;;;;6.70;90.38;100676.27;272379;1269;22598;-90
2024/02/18 11:13:38;;;;;;;11.70;6.70;;;;;;;6.74;90.27;100668.70;272613;1269;23616;-90
2024/02/18 11:20:20;;;;;;;11.10;6.50;;;;;;;7.03;89.88;100666.33;271308;1269;22641;-90
2024/02/18 11:26:32;;;;;;;10.30;6.40;;;;;;;7.32;88.18;100660.45;271208;1270;24205;-91
2024/02/18 11:32:37;;;;;;;11.50;6.40;;;;;;;7.59;88.23;100661.14;272935;1269;22406;-90
2024/02/18 11:38:45;;;;;;;10.10;6.90;;;;;;;7.55;86.07;100655.90;271854;1269;22945;-92
2024/02/18 11:44:48;;;;;;;9.00;6.70;;;;;;;7.36;85.68;100639.38;272839;1269;23611;-91
2024/02/18 11:50:53;;;;;;;12.10;7.10;;;;;;;7.25;84.61;100630.35;272854;1269;22438;-91
2024/02/18 11:56:55;;;;;;;11.00;6.50;;;;;;;7.26;84.73;100617.95;272717;1270;22569;-92
2024/02/18 12:03:00;;;;;;;9.70;5.70;;;;;;;7.35;85.20;100611.48;272697;1269;23371;-90
2024/02/18 12:09:11;;;;;;;12.90;6.50;;;;;;;7.46;84.02;100604.45;273020;1269;22306;-92
2024/02/18 12:15:22;;;;;;;9.50;6.30;;;;;;;7.49;84.16;100600.70;273021;1269;22486;-92
2024/02/18 12:21:25;;;;;;;13.50;6.90;;;;;;;7.29;81.96;100592.42;273013;1270;23614;-90
2024/02/18 12:27:30;;;;;;;12.00;6.50;;;;;;;7.09;82.34;100585.16;272978;1269;22880;-91
2024/02/18 12:33:34;;;;;;;15.80;7.30;;;;;;;6.88;81.96;100567.92;272827;1269;22196;-92
2024/02/18 12:39:37;;;;;;;10.60;6.00;;;;;;;6.78;81.55;100562.58;272979;1269;22228;-90
2024/02/18 12:45:39;;;;;;;10.00;6.40;;;;;;;6.81;81.28;100559.11;273084;1270;22379;-92
2024/02/18 12:51:43;;;;;;;12.20;7.10;;;;;;;6.93;82.34;100550.84;272486;1269;23205;-91
2024/02/18 12:57:45;;;;;;;10.50;6.50;;;;;;;7.04;82.39;100544.77;272738;1269;22468;-92
2024/02/18 13:03:51;;;;;;;10.60;7.10;;;;;;;7.04;80.76;100540.73;273284;1269;22409;-91
2024/02/18 13:09:54;;;;;;;11.70;8.00;;;;;;;6.98;80.41;100537.36;272907;1269;22203;-90
2024/02/18 13:15:58;;;;;;;10.10;7.50;;;;;;;6.93;80.08;100528.90;271008;1269;23047;-91
2024/02/18 13:22:15;;;;;;;13.40;6.60;;;;;;;6.97;80.53;100528.57;273105;1269;23292;-91
2024/02/18 13:28:25;;;;;;;12.40;7.00;;;;;;;6.98;79.36;100525.91;270988;1269;22561;-91
2024/02/18 13:34:27;;;;;;;11.00;7.10;;;;;;;6.99;79.83;100515.23;270025;1270;22558;-90
2024/02/18 13:40:30;;;;;;;13.10;7.00;;;;;;;7.07;79.73;100509.84;271755;1270;22219;-91
2024/02/18 13:46:33;;;;;;;9.60;6.50;;;;;;;7.12;79.46;100508.70;272860;1270;23328;-90
2024/02/18 13:52:36;;;;;;;12.20;7.50;;;;;;;7.21;79.57;100492.48;272062;1269;22322;-91
2024/02/18 13:58:38;;;;;;;10.70;6.80;;;;;;;7.10;79.25;100489.31;271532;1269;22556;-90
2024/02/18 14:04:43;;;;;;;12.10;8.00;;;;;;;6.99;78.74;100489.63;270373;1269;22497;-91
2024/02/18 14:10:47;;;;;;;11.30;7.80;;;;;;;6.92;78.62;100481.50;270601;1269;22575;-92
2024/02/18 14:16:51;;;;;;;16.40;7.40;;;;;;;6.84;78.42;100471.05;272743;1273;22214;-91
2024/02/18 14:22:56;;;;;;;11.40;7.50;;;;;;;6.83;78.10;100471.27;272735;1269;22201;-92
2024/02/18 14:29:00;;;;;;;11.70;8.00;;;;;;;6.78;78.14;100458.23;272451;1269;22430;-91
2024/02/18 14:35:02;;;;;;;13.30;7.00;;;;;;;6.74;77.75;100448.58;272627;1259;25902;-91
2024/02/18 14:41:05;;;;;;;13.40;6.90;;;;;;;6.71;77.55;100439.60;271060;1269;22578;-91
2024/02/18 14:47:09;;;;;;;12.70;6.60;;;;;;;6.63;77.46;100437.75;272839;1269;22612;-90
2024/02/18 14:53:13;;;;;;;12.80;7.50;;;;;;;6.52;77.57;100435.16;272822;1265;22311;-91
2024/02/18 14:59:16;;;;;;;15.20;8.00;;;;;;;6.42;77.81;100433.96;272855;1270;22883;-90
2024/02/18 15:05:19;;;;;;;12.50;6.40;;;;;;;6.31;77.74;100431.64;272967;1269;22984;-90
2024/02/18 15:11:28;;;;;;;12.80;7.40;;;;;;;6.20;77.77;100427.58;272001;1269;22559;-90
2024/02/18 15:17:31;;;;;;;14.90;7.40;;;;;;;6.04;77.69;100421.02;270657;1269;22540;-90
2024/02/18 15:23:34;;;;;;;11.40;7.00;;;;;;;5.87;77.63;100413.83;271951;1269;23248;-90
2024/02/18 15:29:38;;;;;;;10.30;6.90;;;;;;;5.73;77.93;100408.25;272610;1270;22256;-90
2024/02/18 15:35:44;;;;;;;12.70;7.10;;;;;;;5.55;78.05;100395.58;272766;1269;22475;-89
2024/02/18 15:41:48;;;;;;;11.40;7.90;;;;;;;5.37;78.46;100395.05;272913;1269;22459;-91
2024/02/18 15:47:52;;;;;;;12.50;7.50;;;;;;;5.18;78.72;100389.55;272664;1269;22279;-91
2024/02/18 15:53:54;;;;;;;12.40;7.40;;;;;;;4.95;79.00;100384.62;272913;1270;22436;-89
2024/02/18 15:59:56;;;;;;;12.50;7.40;;;;;;;4.70;79.20;100385.33;271142;1269;25503;-89
2024/02/18 16:05:58;;;;;;;13.80;7.50;;;;;;;4.47;79.51;100389.14;272010;1269;22231;-89
2024/02/18 16:12:01;;;;;;;13.20;7.50;;;;;;;4.24;79.97;100385.88;272871;1269;22562;-88
2024/02/18 16:18:07;;;;;;;14.70;8.10;;;;;;;4.04;80.34;100381.84;271183;1269;22556;-91
2024/02/18 16:24:09;;;;;;;14.50;7.90;;;;;;;3.88;80.65;100365.17;272759;1270;22687;-91
2024/02/18 16:30:15;;;;;;;14.80;9.10;;;;;;;3.71;80.94;100356.80;270943;1269;22520;-90
2024/02/18 16:36:20;;;;;;;24.00;10.70;;;;;;;3.56;81.31;100361.81;271315;1270;22619;-90
2024/02/18 16:42:34;;;;;;;25.10;15.10;;;;;;;3.44;81.75;100361.63;271049;1269;23598;-90
2024/02/18 16:48:45;;;;;;;17.80;11.80;;;;;;;3.29;82.10;100352.66;270853;1269;25323;-90
2024/02/18 16:54:47;;;;;;;19.90;10.90;;;;;;;3.15;82.47;100350.49;270612;1270;24969;-91
2024/02/18 17:07:57;;;;;;;23.90;11.90;;;;;;;2.89;83.57;100342.70;272153;1269;22852;-90
2024/02/18 17:15:25;;;;;;;19.80;12.70;;;;;;;2.77;83.91;100341.85;270573;1276;22620;-89
2024/02/18 17:22:30;;;;;;;;;;;;;;;;;;;;;
2024/02/18 17:28:50;;;;;;;26.40;15.50;;;;;;;2.47;84.81;100321.27;271708;1269;23360;-90
2024/02/18 17:35:15;;;;;;;33.00;16.70;;;;;;;2.33;85.16;100309.50;271570;1270;22621;-90
2024/02/18 17:42:26;;;;;;;;;;;;;;;;;;;;;
2024/02/18 17:49:43;;;;;;;;;;;;;;;;;;;;;
2024/02/18 17:56:26;;;;;;;39.20;21.30;;;;;;;1.83;86.57;100288.08;269883;1273;22546;-90
2024/02/18 18:03:10;;;;;;;42.60;22.90;;;;;;;1.69;86.97;100282.02;270966;1273;22947;-92
2024/02/18 18:09:33;;;;;;;43.00;23.30;;;;;;;1.53;87.34;100270.30;271508;1269;22622;-89
2024/02/18 18:15:36;;;;;;;41.80;22.40;;;;;;;1.43;87.89;100262.52;272845;1270;22443;-89
2024/02/18 18:21:47;;;;;;;43.30;23.20;;;;;;;1.30;87.95;100258.70;272433;1270;23658;-89
2024/02/18 18:28:01;;;;;;;42.20;23.40;;;;;;;1.16;88.15;100246.76;272074;1270;22582;-90
2024/02/18 18:34:13;;;;;;;47.80;24.30;;;;;;;1.05;88.41;100235.95;271480;1270;22621;-89
2024/02/18 18:40:19;;;;;;;45.00;24.10;;;;;;;0.97;88.95;100221.83;272361;1270;22444;-89
2024/02/18 18:46:35;;;;;;;36.10;18.10;;;;;;;0.88;89.52;100215.75;273124;1270;22316;-89
2024/02/18 18:52:51;;;;;;;39.40;20.90;;;;;;;0.79;90.04;100208.38;272863;1269;23237;-89
2024/02/18 18:58:53;;;;;;;41.80;22.10;;;;;;;0.72;90.44;100204.63;270239;1269;22587;-90
2024/02/18 19:04:55;;;;;;;45.30;24.00;;;;;;;0.61;90.75;100192.35;270333;1269;237624;-91
2024/02/18 19:10:59;;;;;;;40.40;23.20;;;;;;;0.51;91.11;100174.86;262801;1270;10001844;-90
2024/02/18 19:17:04;;;;;;;65.40;28.80;;;;;;;0.43;91.49;100166.99;271892;1267;22643;-90
2024/02/18 19:23:07;;;;;;;50.70;23.30;;;;;;;0.32;91.60;100161.64;271854;1268;22413;-90
2024/02/18 19:29:09;;;;;;;59.20;29.60;;;;;;;0.14;91.77;100165.30;272850;1269;23147;-91
2024/02/18 19:35:12;;;;;;;58.00;29.30;;;;;;;0.05;92.50;100154.86;272452;1269;22464;-89
2024/02/18 19:41:14;;;;;;;67.80;32.10;;;;;;;-0.03;92.21;100144.62;272233;1270;23354;-89
2024/02/18 19:47:17;;;;;;;63.50;30.30;;;;;;;-0.09;92.71;100136.15;272070;1270;23557;-89
2024/02/18 19:53:19;;;;;;;60.70;30.30;;;;;;;-0.11;93.32;100124.36;272842;1269;22522;-89
2024/02/18 19:59:23;;;;;;;58.40;28.80;;;;;;;-0.17;93.80;100107.13;272776;1270;22403;-88
2024/02/18 20:05:25;;;;;;;60.60;29.00;;;;;;;-0.25;93.82;100112.22;272765;1270;22648;-89
2024/02/18 20:11:27;;;;;;;55.00;27.80;;;;;;;-0.29;94.44;100111.70;272711;1269;22248;-90
2024/02/18 20:17:30;;;;;;;62.70;29.60;;;;;;;-0.31;94.90;100108.82;272910;1269;22392;-89
2024/02/18 20:23:31;;;;;;;58.30;30.30;;;;;;;-0.33;95.30;100103.88;272807;1269;22311;-88
2024/02/18 20:29:36;;;;;;;76.80;36.10;;;;;;;-0.35;95.35;100095.02;272794;1269;23508;-89
2024/02/18 20:35:53;;;;;;;75.20;36.20;;;;;;;-0.42;95.54;100091.27;272691;1269;22231;-89
2024/02/18 20:42:03;;;;;;;66.50;31.30;;;;;;;-0.49;95.77;100093.63;272797;1269;22285;-88
2024/02/18 20:48:05;;;;;;;57.60;30.30;;;;;;;-0.56;96.09;100090.48;272799;1267;22417;-87
2024/02/18 20:54:07;;;;;;;64.50;31.60;;;;;;;-0.61;96.52;100079.48;272791;1269;22302;-87
2024/02/18 21:00:10;;;;;;;56.70;28.90;;;;;;;-0.65;96.78;100074.05;273406;1270;22176;-87
2024/02/18 21:06:14;;;;;;;59.20;29.50;;;;;;;-0.67;97.09;100081.11;272619;1269;22471;-87
2024/02/18 21:12:16;;;;;;;65.10;32.30;;;;;;;-0.69;97.08;100079.34;272939;1260;22302;-88
2024/02/18 21:18:19;;;;;;;73.70;35.00;;;;;;;-0.79;97.05;100066.05;272064;1269;22383;-88
2024/02/18 21:24:21;;;;;;;67.80;33.90;;;;;;;-0.89;97.35;100054.95;272730;1270;22489;-89
2024/02/18 21:30:24;;;;;;;63.10;32.10;;;;;;;-0.95;97.52;100040.67;272765;1269;22428;-88
2024/02/18 21:36:29;;;;;;;70.70;33.30;;;;;;;-1.02;97.86;100037.27;272779;1264;23625;-89
2024/02/18 21:42:35;;;;;;;97.50;40.00;;;;;;;-1.08;98.09;100030.56;272700;1269;23031;-90
2024/02/18 21:48:40;;;;;;;69.50;31.90;;;;;;;-1.10;98.49;100030.24;272933;1270;22470;-89
2024/02/18 21:54:42;;;;;;;63.90;28.70;;;;;;;-1.11;98.69;100028.16;272986;1269;22452;-89
2024/02/18 22:00:44;;;;;;;66.80;32.50;;;;;;;-1.16;98.60;100017.41;272997;1269;23526;-88
2024/02/18 22:06:46;;;;;;;64.50;32.30;;;;;;;-1.23;98.81;100006.49;273016;1270;23190;-90
2024/02/18 22:12:51;;;;;;;52.50;27.40;;;;;;;-1.33;98.37;100002.11;272945;1269;22479;-89
2024/02/18 22:18:55;;;;;;;57.00;28.20;;;;;;;-1.35;98.98;100001.54;270776;1269;22552;-89
2024/02/18 22:24:57;;;;;;;58.50;28.70;;;;;;;-1.35;99.49;100000.45;271650;1262;22205;-89
2024/02/18 22:31:00;;;;;;;56.50;29.50;;;;;;;-1.37;99.69;99992.49;273002;1272;23341;-88
2024/02/18 22:37:02;;;;;;;69.20;33.10;;;;;;;-1.44;99.68;99986.34;273004;1269;23634;-89
2024/02/18 22:43:04;;;;;;;67.40;33.50;;;;;;;-1.49;99.91;99987.48;272926;1270;22495;-88
2024/02/18 22:49:05;;;;;;;70.90;33.10;;;;;;;-1.50;99.98;99982.86;272629;1269;24121;-89
2024/02/18 22:55:08;;;;;;;73.80;35.50;;;;;;;-1.52;100.00;99978.69;272874;1269;22255;-88
2024/02/18 23:01:12;;;;;;;65.30;31.00;;;;;;;-1.61;100.00;99976.77;272933;1257;23613;-87
2024/02/18 23:07:14;;;;;;;115.10;47.80;;;;;;;-1.64;100.00;99978.83;273019;1269;24098;-88
2024/02/18 23:13:17;;;;;;;93.00;37.80;;;;;;;-1.67;100.00;99979.58;272881;1269;22375;-87
2024/02/18 23:19:20;;;;;;;100.70;44.20;;;;;;;-1.69;100.00;99975.71;273117;1269;22395;-87
2024/02/18 23:25:24;;;;;;;76.30;33.20;;;;;;;-1.81;100.00;99971.77;273016;1269;22374;-87
2024/02/18 23:31:26;;;;;;;74.00;35.10;;;;;;;-1.90;100.00;99967.27;272575;1269;22537;-86
2024/02/18 23:45:05;;;;;;;69.90;34.30;;;;;;;-1.94;100.00;99946.23;273694;1277;22390;-86
2024/02/18 23:59:04;;;;;;;61.40;31.00;;;;;;;-1.94;100.00;99927.39;273625;1272;22679;-86
